Rome, Georgia
Current Conditions -  °F | °C
As of 9:53 PM on Wednesday 22 Oct 2014 (Local Time) from KRMG Reporting Station
Clear Clear  
Wind Chill: 50°   Ceiling: Unl
Heat Index: 50°   Visibility: 10mi
Dew Point: 41°   Wind: 3mph
Humidity: 71%   Direction: 330°NNW
Pressure: 30.15"   Gusts: NA
Location:  34.25°N, 85.17°W
Report Text: KRMG 230153Z AUTO 33003KT 10SM CLR 10/05 A3015 RMK AO2 SLP206 T01000050
Loading
Personal Weather Stations






























Interactive Weather Map
Tropical Storm Tracking
New forecast layout! Learn more

10-Day Weather Forecast

Advertisements
Track Severe Weather on mobile